Time;durP1;ratioP1;P1;durP2;ratioP2;P2;SDS_P1;SDS_P2;PMS_P1;PMS_P2;Temp;Humidity;BMP_temperature;BMP_pressure;BME280_temperature;BME280_humidity;BME280_pressure;Samples;Min_cycle;Max_cycle;Signal;HPM_P1;HPM_P2
2021/10/03 00:00:48;;;;;;;21.17;14.90;;;;;;;;;;6284910;28;20063;-70
2021/10/03 00:03:53;;;;;;;23.30;14.48;;;;;;;;;;6279220;28;20696;-69
2021/10/03 00:06:56;;;;;;;21.10;14.48;;;;;;;;;;6280125;28;20040;-69
2021/10/03 00:09:58;;;;;;;21.48;13.95;;;;;;;;;;6293433;28;20096;-70
2021/10/03 00:13:03;;;;;;;21.70;13.70;;;;;;;;;;6280866;28;20139;-69
2021/10/03 00:16:06;;;;;;;26.25;14.93;;;;;;;;;;6271804;28;20052;-73
2021/10/03 00:19:07;;;;;;;20.45;13.98;;;;;;;;;;6275454;28;20048;-69
2021/10/03 00:22:11;;;;;;;22.75;14.10;;;;;;;;;;6282227;28;20128;-72
2021/10/03 00:25:13;;;;;;;22.55;14.75;;;;;;;;;;6288464;28;20040;-74
2021/10/03 00:28:15;;;;;;;21.75;14.32;;;;;;;;;;6284408;28;20044;-69
2021/10/03 00:31:17;;;;;;;21.77;13.82;;;;;;;;;;6275450;28;20451;-69
2021/10/03 00:34:18;;;;;;;19.67;13.68;;;;;;;;;;6288565;28;20551;-69
2021/10/03 00:37:21;;;;;;;22.92;14.57;;;;;;;;;;6284911;28;20226;-69
2021/10/03 00:40:24;;;;;;;19.60;14.18;;;;;;;;;;6288338;28;20058;-73
2021/10/03 00:43:26;;;;;;;18.60;13.93;;;;;;;;;;6279802;28;20044;-69
2021/10/03 00:46:28;;;;;;;19.77;13.77;;;;;;;;;;6265827;28;20485;-69
2021/10/03 00:49:33;;;;;;;19.95;12.80;;;;;;;;;;6283070;28;20486;-72
2021/10/03 00:52:36;;;;;;;20.05;13.95;;;;;;;;;;6280682;28;20048;-71
2021/10/03 00:55:39;;;;;;;24.08;14.45;;;;;;;;;;6281404;28;20960;-69
2021/10/03 00:58:42;;;;;;;23.60;14.02;;;;;;;;;;6286442;28;20075;-70
2021/10/03 01:01:44;;;;;;;21.52;14.82;;;;;;;;;;6263714;28;20040;-70
2021/10/03 01:04:46;;;;;;;22.33;14.80;;;;;;;;;;6285894;28;20045;-69
2021/10/03 01:07:49;;;;;;;25.02;14.65;;;;;;;;;;6276619;28;20048;-73
2021/10/03 01:10:51;;;;;;;24.05;14.90;;;;;;;;;;6274943;28;20037;-69
2021/10/03 01:13:52;;;;;;;22.15;14.98;;;;;;;;;;6288201;28;20063;-69
2021/10/03 01:16:54;;;;;;;22.60;14.48;;;;;;;;;;6276091;28;20044;-70
2021/10/03 01:19:58;;;;;;;20.80;13.80;;;;;;;;;;6283561;28;20048;-73
2021/10/03 01:23:04;;;;;;;23.00;15.05;;;;;;;;;;6275530;28;20075;-70
2021/10/03 01:26:06;;;;;;;22.67;14.88;;;;;;;;;;6274568;28;20075;-68
2021/10/03 01:29:09;;;;;;;21.48;14.25;;;;;;;;;;6286240;28;20068;-70
2021/10/03 01:32:11;;;;;;;21.38;14.02;;;;;;;;;;6281179;28;20127;-71
2021/10/03 01:35:13;;;;;;;21.65;13.85;;;;;;;;;;6289725;28;20455;-74
2021/10/03 01:38:17;;;;;;;19.25;13.10;;;;;;;;;;6282066;28;20182;-69
2021/10/03 01:41:19;;;;;;;20.13;13.57;;;;;;;;;;6280660;28;20048;-70
2021/10/03 01:44:21;;;;;;;21.05;13.95;;;;;;;;;;6281899;28;20052;-71
2021/10/03 01:47:22;;;;;;;20.48;12.77;;;;;;;;;;6276078;28;20479;-68
2021/10/03 01:50:24;;;;;;;18.05;13.45;;;;;;;;;;6278582;28;20461;-75
2021/10/03 01:53:30;;;;;;;18.25;13.35;;;;;;;;;;6284924;28;20117;-70
2021/10/03 01:56:32;;;;;;;19.60;12.90;;;;;;;;;;6279727;28;20056;-71
2021/10/03 01:59:34;;;;;;;18.85;13.23;;;;;;;;;;6281584;28;20051;-69
2021/10/03 02:02:35;;;;;;;19.25;11.93;;;;;;;;;;6283351;28;20151;-71
2021/10/03 02:05:40;;;;;;;21.60;12.90;;;;;;;;;;6280085;28;20055;-69
2021/10/03 02:08:43;;;;;;;19.42;13.55;;;;;;;;;;6290116;28;20056;-68
2021/10/03 02:11:48;;;;;;;19.38;12.90;;;;;;;;;;6281629;28;20432;-68
2021/10/03 02:14:50;;;;;;;21.13;13.35;;;;;;;;;;6292306;28;20040;-73
2021/10/03 02:17:52;;;;;;;21.05;13.52;;;;;;;;;;6282650;28;20044;-67
2021/10/03 02:20:54;;;;;;;19.65;13.60;;;;;;;;;;6286459;28;20060;-69
2021/10/03 02:23:57;;;;;;;21.67;13.07;;;;;;;;;;6297206;28;20579;-68
2021/10/03 02:26:59;;;;;;;18.97;12.27;;;;;;;;;;6290021;28;20125;-68
2021/10/03 02:30:00;;;;;;;20.50;13.27;;;;;;;;;;6291907;28;20481;-68
2021/10/03 02:33:02;;;;;;;23.13;13.25;;;;;;;;;;6276714;28;20053;-68
2021/10/03 02:36:04;;;;;;;19.40;11.85;;;;;;;;;;6289413;28;20127;-68
2021/10/03 02:39:07;;;;;;;19.27;12.90;;;;;;;;;;6296338;28;20052;-74
2021/10/03 02:42:09;;;;;;;17.38;11.98;;;;;;;;;;6290306;28;20048;-70
2021/10/03 02:45:11;;;;;;;18.45;12.93;;;;;;;;;;6294051;28;20059;-74
2021/10/03 02:48:14;;;;;;;19.42;12.38;;;;;;;;;;6280909;28;20056;-72
2021/10/03 02:51:16;;;;;;;21.85;12.93;;;;;;;;;;6284260;28;20051;-69
2021/10/03 02:54:19;;;;;;;18.15;12.20;;;;;;;;;;6290521;28;20136;-68
2021/10/03 02:57:20;;;;;;;18.27;12.23;;;;;;;;;;6284609;28;20194;-68
2021/10/03 03:00:22;;;;;;;20.65;12.45;;;;;;;;;;6290667;28;20106;-71
2021/10/03 03:03:23;;;;;;;17.33;11.27;;;;;;;;;;6286347;28;20136;-69
2021/10/03 03:06:25;;;;;;;17.92;11.75;;;;;;;;;;6283805;28;20045;-68
2021/10/03 03:09:28;;;;;;;18.80;11.95;;;;;;;;;;6288480;28;20056;-74
2021/10/03 03:12:29;;;;;;;21.83;12.30;;;;;;;;;;6283309;28;20079;-71
2021/10/03 03:15:31;;;;;;;18.30;11.98;;;;;;;;;;6282686;28;20044;-74
2021/10/03 03:18:33;;;;;;;19.40;12.23;;;;;;;;;;6282893;28;20101;-72
2021/10/03 03:21:34;;;;;;;22.00;13.25;;;;;;;;;;6283021;28;20105;-70
2021/10/03 03:24:37;;;;;;;21.65;13.02;;;;;;;;;;6291509;28;20044;-68
2021/10/03 03:27:40;;;;;;;21.10;13.27;;;;;;;;;;6283406;28;20064;-70
2021/10/03 03:30:41;;;;;;;21.95;14.25;;;;;;;;;;6284065;28;20950;-68
2021/10/03 03:33:43;;;;;;;22.42;13.30;;;;;;;;;;6286232;28;20400;-68
2021/10/03 03:36:45;;;;;;;21.27;13.57;;;;;;;;;;6291155;28;20067;-72
2021/10/03 03:39:48;;;;;;;24.13;13.30;;;;;;;;;;6290856;28;20047;-70
2021/10/03 03:42:49;;;;;;;23.50;14.27;;;;;;;;;;6286169;28;20606;-68
2021/10/03 03:45:51;;;;;;;23.13;14.30;;;;;;;;;;6279195;28;20653;-71
2021/10/03 03:48:53;;;;;;;21.35;13.55;;;;;;;;;;6283207;28;20040;-70
2021/10/03 03:51:54;;;;;;;23.65;13.63;;;;;;;;;;6282843;28;20139;-68
2021/10/03 03:54:57;;;;;;;23.15;13.75;;;;;;;;;;6288657;28;20051;-68
2021/10/03 03:57:59;;;;;;;22.17;14.03;;;;;;;;;;6277692;28;20474;-69
2021/10/03 04:01:00;;;;;;;22.73;13.93;;;;;;;;;;6276691;28;20063;-69
2021/10/03 04:04:02;;;;;;;20.70;13.43;;;;;;;;;;6283853;28;20044;-68
2021/10/03 04:07:04;;;;;;;24.23;14.05;;;;;;;;;;6282033;28;20049;-70
2021/10/03 04:10:08;;;;;;;23.08;13.85;;;;;;;;;;6286459;28;20552;-72
2021/10/03 04:13:12;;;;;;;23.77;14.25;;;;;;;;;;6279200;28;20063;-68
2021/10/03 04:16:14;;;;;;;20.88;13.18;;;;;;;;;;6267437;28;20060;-68
2021/10/03 04:19:15;;;;;;;21.85;13.27;;;;;;;;;;6282326;28;20041;-68
2021/10/03 04:22:17;;;;;;;19.77;13.50;;;;;;;;;;6279873;28;20127;-70
2021/10/03 04:25:20;;;;;;;23.25;13.18;;;;;;;;;;6281601;28;20174;-74
2021/10/03 04:28:25;;;;;;;25.90;14.35;;;;;;;;;;6284264;28;20048;-68
2021/10/03 04:31:27;;;;;;;22.38;13.48;;;;;;;;;;6278245;28;20405;-69
2021/10/03 04:34:28;;;;;;;24.92;14.25;;;;;;;;;;6285964;28;20570;-68
2021/10/03 04:37:30;;;;;;;20.48;13.48;;;;;;;;;;6260940;28;20049;-70
2021/10/03 04:40:33;;;;;;;22.60;13.80;;;;;;;;;;6281308;28;20105;-74
2021/10/03 04:43:35;;;;;;;21.48;14.02;;;;;;;;;;6287900;28;20065;-68
2021/10/03 04:46:36;;;;;;;22.92;14.02;;;;;;;;;;6276481;28;20555;-69
2021/10/03 04:49:38;;;;;;;26.85;15.30;;;;;;;;;;6282827;28;20099;-67
2021/10/03 04:52:40;;;;;;;23.27;13.93;;;;;;;;;;6275508;28;20044;-68
2021/10/03 04:55:43;;;;;;;28.27;15.85;;;;;;;;;;6278729;28;20036;-68
2021/10/03 04:58:44;;;;;;;25.47;16.47;;;;;;;;;;6284927;28;20074;-70
2021/10/03 05:01:46;;;;;;;28.90;16.17;;;;;;;;;;6276660;28;20262;-68
2021/10/03 05:04:47;;;;;;;24.65;15.80;;;;;;;;;;6287582;28;20488;-68
2021/10/03 05:07:49;;;;;;;26.88;16.23;;;;;;;;;;6274305;28;20467;-72
2021/10/03 05:10:52;;;;;;;26.95;17.13;;;;;;;;;;6280394;28;20044;-68
2021/10/03 05:13:53;;;;;;;28.13;17.03;;;;;;;;;;6287132;28;20055;-68
2021/10/03 05:16:55;;;;;;;28.10;17.00;;;;;;;;;;6275344;28;20057;-70
2021/10/03 05:19:57;;;;;;;26.02;17.23;;;;;;;;;;6287575;28;20105;-75
2021/10/03 05:22:58;;;;;;;29.30;18.17;;;;;;;;;;6276247;28;20040;-68
2021/10/03 05:26:01;;;;;;;33.00;19.80;;;;;;;;;;6284852;28;20123;-68
2021/10/03 05:29:03;;;;;;;30.83;19.85;;;;;;;;;;6282280;28;20094;-69
2021/10/03 05:32:06;;;;;;;30.50;20.27;;;;;;;;;;6277224;28;20051;-68
2021/10/03 05:35:08;;;;;;;27.30;18.73;;;;;;;;;;6280569;28;20063;-75
2021/10/03 05:38:09;;;;;;;27.42;18.65;;;;;;;;;;6277993;28;20067;-68
2021/10/03 05:41:12;;;;;;;30.17;20.55;;;;;;;;;;6278419;28;20175;-69
2021/10/03 05:44:14;;;;;;;27.75;19.13;;;;;;;;;;6288188;28;20093;-68
2021/10/03 05:47:16;;;;;;;26.95;18.67;;;;;;;;;;6275343;28;20052;-74
2021/10/03 05:50:17;;;;;;;26.95;18.98;;;;;;;;;;6283922;28;20105;-72
2021/10/03 05:53:19;;;;;;;28.80;19.02;;;;;;;;;;6288490;28;20048;-68
2021/10/03 05:56:22;;;;;;;28.75;18.85;;;;;;;;;;6289622;28;20047;-68
2021/10/03 05:59:23;;;;;;;26.10;18.37;;;;;;;;;;6292839;28;20181;-68
2021/10/03 06:02:25;;;;;;;26.52;19.40;;;;;;;;;;6281423;28;20071;-69
2021/10/03 06:05:27;;;;;;;26.85;18.05;;;;;;;;;;6275459;28;20053;-72
2021/10/03 06:08:28;;;;;;;24.98;17.95;;;;;;;;;;6286778;28;20045;-68
2021/10/03 06:11:31;;;;;;;24.63;17.45;;;;;;;;;;6284737;28;20136;-68
2021/10/03 06:14:33;;;;;;;25.10;16.60;;;;;;;;;;6291042;28;20121;-68
2021/10/03 06:17:35;;;;;;;23.70;16.73;;;;;;;;;;6275376;28;20072;-71
2021/10/03 06:20:36;;;;;;;23.48;16.50;;;;;;;;;;6279129;28;20645;-69
2021/10/03 06:23:38;;;;;;;25.98;16.45;;;;;;;;;;6287392;28;20043;-68
2021/10/03 06:26:43;;;;;;;24.50;16.90;;;;;;;;;;6281133;28;20136;-68
2021/10/03 06:29:45;;;;;;;22.25;15.02;;;;;;;;;;6290457;28;20064;-68
2021/10/03 06:32:46;;;;;;;21.80;14.98;;;;;;;;;;6283954;28;20057;-70
2021/10/03 06:35:48;;;;;;;21.65;15.85;;;;;;;;;;6255821;28;20044;-67
2021/10/03 06:38:50;;;;;;;22.88;15.27;;;;;;;;;;6295540;28;20546;-69
2021/10/03 06:41:54;;;;;;;21.08;14.27;;;;;;;;;;6290107;28;20078;-68
2021/10/03 06:44:56;;;;;;;17.35;13.63;;;;;;;;;;6288887;28;20494;-67
2021/10/03 06:47:57;;;;;;;19.55;14.25;;;;;;;;;;6275325;28;20048;-68
2021/10/03 06:50:59;;;;;;;20.55;13.88;;;;;;;;;;6282775;28;20037;-69
2021/10/03 06:54:01;;;;;;;18.30;13.45;;;;;;;;;;6288582;28;20126;-70
2021/10/03 06:57:04;;;;;;;19.70;13.60;;;;;;;;;;6282894;28;20101;-68
2021/10/03 07:00:08;;;;;;;18.98;13.73;;;;;;;;;;6283310;28;20051;-72
2021/10/03 07:03:10;;;;;;;18.90;14.00;;;;;;;;;;6277492;28;20096;-67
2021/10/03 07:06:12;;;;;;;18.65;13.15;;;;;;;;;;6284996;28;20119;-69
2021/10/03 07:09:14;;;;;;;19.50;13.60;;;;;;;;;;6289890;28;20549;-68
2021/10/03 07:12:17;;;;;;;18.95;14.07;;;;;;;;;;6289745;28;20173;-69
2021/10/03 07:15:20;;;;;;;;;;;;;;;;;;6286243;28;20079;-78
2021/10/03 07:18:21;;;;;;;18.40;13.43;;;;;;;;;;6284226;28;20044;-73
2021/10/03 07:21:23;;;;;;;21.80;13.70;;;;;;;;;;6285320;28;20048;-70
2021/10/03 07:24:24;;;;;;;22.40;13.82;;;;;;;;;;6294044;28;20123;-67
2021/10/03 07:27:28;;;;;;;17.92;13.95;;;;;;;;;;6287597;28;20052;-67
2021/10/03 07:30:29;;;;;;;19.48;13.93;;;;;;;;;;6286679;28;20044;-72
2021/10/03 07:33:31;;;;;;;19.90;14.75;;;;;;;;;;6282076;28;20053;-68
2021/10/03 07:36:33;;;;;;;18.98;13.68;;;;;;;;;;6286489;28;20040;-70
2021/10/03 07:39:35;;;;;;;19.23;14.07;;;;;;;;;;6292632;28;20063;-69
2021/10/03 07:42:38;;;;;;;20.25;14.82;;;;;;;;;;6287694;28;20044;-70
2021/10/03 07:45:40;;;;;;;18.25;13.52;;;;;;;;;;6287746;28;20090;-68
2021/10/03 07:48:41;;;;;;;20.25;14.43;;;;;;;;;;6279938;28;20607;-68
2021/10/03 07:51:43;;;;;;;20.10;13.70;;;;;;;;;;6284373;28;20061;-71
2021/10/03 07:54:45;;;;;;;19.33;13.65;;;;;;;;;;6287323;28;20143;-69
2021/10/03 07:57:48;;;;;;;19.90;14.43;;;;;;;;;;6283721;28;20032;-67
2021/10/03 08:00:49;;;;;;;22.13;13.95;;;;;;;;;;6280724;28;20045;-68
2021/10/03 08:03:51;;;;;;;18.15;14.27;;;;;;;;;;6288273;28;20037;-71
2021/10/03 08:06:52;;;;;;;19.60;13.82;;;;;;;;;;6287921;28;20063;-71
2021/10/03 08:09:55;;;;;;;25.20;15.10;;;;;;;;;;6282388;28;20052;-67
2021/10/03 08:12:58;;;;;;;23.23;14.77;;;;;;;;;;6282137;28;20059;-69
2021/10/03 08:16:00;;;;;;;20.70;14.98;;;;;;;;;;6282431;28;20182;-67
2021/10/03 08:19:03;;;;;;;18.80;13.52;;;;;;;;;;6283490;28;20511;-68
2021/10/03 08:22:04;;;;;;;18.27;14.02;;;;;;;;;;6276641;28;20174;-69
2021/10/03 08:25:08;;;;;;;20.23;14.70;;;;;;;;;;6284874;28;20135;-70
2021/10/03 08:28:11;;;;;;;19.30;14.25;;;;;;;;;;6285274;28;20053;-68
2021/10/03 08:31:13;;;;;;;19.53;14.70;;;;;;;;;;6279493;28;20033;-70
2021/10/03 08:34:14;;;;;;;22.88;13.93;;;;;;;;;;6283969;28;20048;-68
2021/10/03 08:37:16;;;;;;;20.48;13.30;;;;;;;;;;6281081;28;20124;-70
2021/10/03 08:40:18;;;;;;;19.50;14.75;;;;;;;;;;6284468;28;20049;-70
2021/10/03 08:43:21;;;;;;;20.05;14.65;;;;;;;;;;6285558;28;20072;-69
2021/10/03 08:46:24;;;;;;;19.38;13.88;;;;;;;;;;6277191;28;20045;-69
2021/10/03 08:49:26;;;;;;;16.77;12.85;;;;;;;;;;6284559;28;20123;-68
2021/10/03 08:52:28;;;;;;;19.23;13.88;;;;;;;;;;6279257;28;20166;-67
2021/10/03 08:55:29;;;;;;;17.02;13.35;;;;;;;;;;6281955;28;20173;-71
2021/10/03 08:58:33;;;;;;;17.38;13.63;;;;;;;;;;6286947;28;20164;-67
2021/10/03 09:01:48;;;;;;;18.27;14.07;;;;;;;;;;6278890;28;20064;-70
2021/10/03 09:04:58;;;;;;;21.98;14.40;;;;;;;;;;6284745;28;20054;-67
2021/10/03 09:08:10;;;;;;;16.98;13.10;;;;;;;;;;6278527;28;20097;-68
2021/10/03 09:11:12;;;;;;;18.63;13.65;;;;;;;;;;6278833;28;20048;-67
2021/10/03 09:14:35;;;;;;;18.30;14.25;;;;;;;;;;6285030;28;20171;-66
2021/10/03 09:17:37;;;;;;;17.98;14.20;;;;;;;;;;6275618;28;20132;-68
2021/10/03 09:20:38;;;;;;;19.45;14.77;;;;;;;;;;6282306;28;20403;-69
2021/10/03 09:23:40;;;;;;;20.73;14.88;;;;;;;;;;6284395;28;20117;-75
2021/10/03 09:26:53;;;;;;;20.13;14.85;;;;;;;;;;6282455;28;20071;-70
2021/10/03 09:30:06;;;;;;;22.58;15.05;;;;;;;;;;6283884;28;20094;-71
2021/10/03 09:33:08;;;;;;;19.87;15.23;;;;;;;;;;6281590;28;20052;-73
2021/10/03 09:36:10;;;;;;;21.35;15.05;;;;;;;;;;6281925;28;20707;-69
2021/10/03 09:39:12;;;;;;;21.77;15.18;;;;;;;;;;6283634;28;20175;-70
2021/10/03 09:42:14;;;;;;;19.42;14.73;;;;;;;;;;6288334;28;20056;-70
2021/10/03 09:45:21;;;;;;;21.10;15.70;;;;;;;;;;6287630;28;20040;-74
2021/10/03 09:48:22;;;;;;;17.85;14.45;;;;;;;;;;6281331;28;20138;-70
2021/10/03 09:51:26;;;;;;;19.65;15.45;;;;;;;;;;6285173;28;20158;-72
2021/10/03 09:54:27;;;;;;;21.40;16.00;;;;;;;;;;6292926;28;20197;-69
2021/10/03 09:57:29;;;;;;;23.23;16.20;;;;;;;;;;6283767;28;20307;-69
2021/10/03 10:00:32;;;;;;;22.58;16.35;;;;;;;;;;6290257;28;20104;-76
2021/10/03 10:03:37;;;;;;;21.65;15.90;;;;;;;;;;6294171;28;20048;-69
2021/10/03 10:06:39;;;;;;;21.48;15.75;;;;;;;;;;6287076;28;20674;-70
2021/10/03 10:09:41;;;;;;;22.08;15.90;;;;;;;;;;6295297;28;20404;-72
2021/10/03 10:12:49;;;;;;;21.15;15.93;;;;;;;;;;6291694;28;20047;-69
2021/10/03 10:15:52;;;;;;;18.85;14.73;;;;;;;;;;6288230;28;20119;-69
2021/10/03 10:19:42;;;;;;;16.57;13.67;;;;;;;;;;6287848;28;20211;-69
2021/10/03 10:22:53;;;;;;;18.13;13.52;;;;;;;;;;6284755;28;20550;-70
2021/10/03 10:25:56;;;;;;;18.02;13.27;;;;;;;;;;6284315;28;21421;-69
2021/10/03 10:28:58;;;;;;;17.90;13.27;;;;;;;;;;6290462;28;20171;-68
2021/10/03 10:32:10;;;;;;;16.85;13.65;;;;;;;;;;6280550;28;20049;-69
2021/10/03 10:35:20;;;;;;;18.00;13.25;;;;;;;;;;6288414;28;20438;-76
2021/10/03 10:38:22;;;;;;;16.83;13.15;;;;;;;;;;6293548;28;20052;-69
2021/10/03 10:41:35;;;;;;;16.55;13.23;;;;;;;;;;6293479;28;20048;-70
2021/10/03 10:44:40;;;;;;;17.15;13.65;;;;;;;;;;6293552;28;20044;-71
2021/10/03 10:48:15;;;;;;;18.80;13.23;;;;;;;;;;6281100;28;20044;-68
2021/10/03 10:51:19;;;;;;;18.00;13.27;;;;;;;;;;6286074;28;20047;-68
2021/10/03 10:54:21;;;;;;;17.17;13.32;;;;;;;;;;6295192;28;20051;-68
2021/10/03 10:57:22;;;;;;;18.70;14.82;;;;;;;;;;6288841;28;20040;-70
2021/10/03 11:00:25;;;;;;;19.30;15.00;;;;;;;;;;6294645;28;20127;-79
2021/10/03 11:04:03;;;;;;;19.30;14.65;;;;;;;;;;6291030;28;20102;-68
2021/10/03 11:07:07;;;;;;;18.67;14.10;;;;;;;;;;6286978;28;20068;-68
2021/10/03 11:10:09;;;;;;;18.35;14.13;;;;;;;;;;6293001;28;20412;-79
2021/10/03 11:13:41;;;;;;;19.02;14.15;;;;;;;;;;6292361;28;20044;-69
2021/10/03 11:16:46;;;;;;;19.85;14.13;;;;;;;;;;6286167;28;20048;-70
2021/10/03 11:19:48;;;;;;;19.50;13.45;;;;;;;;;;6291313;28;20057;-68
2021/10/03 11:22:51;;;;;;;21.10;15.48;;;;;;;;;;6284701;28;20059;-70
2021/10/03 11:26:03;;;;;;;20.52;15.48;;;;;;;;;;6283373;28;20192;-69
2021/10/03 11:29:06;;;;;;;21.77;14.80;;;;;;;;;;6290495;28;20141;-69
2021/10/03 11:32:09;;;;;;;22.30;15.95;;;;;;;;;;6286608;28;20053;-69
2021/10/03 11:35:12;;;;;;;24.67;16.35;;;;;;;;;;6286314;28;20041;-72
2021/10/03 11:38:15;;;;;;;29.20;16.27;;;;;;;;;;6291566;28;20062;-69
2021/10/03 11:41:17;;;;;;;24.65;17.20;;;;;;;;;;6284997;28;20391;-71
2021/10/03 11:44:20;;;;;;;24.80;17.10;;;;;;;;;;6291831;28;20135;-69
2021/10/03 11:47:21;;;;;;;23.17;18.30;;;;;;;;;;6275895;28;20481;-69
2021/10/03 11:50:25;;;;;;;25.50;17.60;;;;;;;;;;6283044;28;20052;-73
2021/10/03 11:53:30;;;;;;;23.23;16.60;;;;;;;;;;6292548;28;20040;-72
2021/10/03 11:56:37;;;;;;;25.98;17.63;;;;;;;;;;6292149;28;20078;-69
2021/10/03 11:59:39;;;;;;;26.17;17.33;;;;;;;;;;6295196;28;20519;-70
2021/10/03 12:02:43;;;;;;;22.05;17.23;;;;;;;;;;6289047;28;20553;-69
2021/10/03 12:05:44;;;;;;;23.83;17.27;;;;;;;;;;6285196;28;20064;-67
2021/10/03 12:08:48;;;;;;;23.80;17.20;;;;;;;;;;6290873;28;20136;-70
2021/10/03 12:11:50;;;;;;;26.40;17.05;;;;;;;;;;6286552;28;20595;-69
2021/10/03 12:14:51;;;;;;;24.75;17.27;;;;;;;;;;6294914;28;20084;-72
2021/10/03 12:17:53;;;;;;;25.33;17.20;;;;;;;;;;6286350;28;20102;-69
2021/10/03 12:20:57;;;;;;;23.58;17.95;;;;;;;;;;6284653;28;20052;-68
2021/10/03 12:24:07;;;;;;;24.08;17.25;;;;;;;;;;6297175;28;20173;-70
2021/10/03 12:27:09;;;;;;;24.65;18.13;;;;;;;;;;6281872;28;20058;-67
2021/10/03 12:30:12;;;;;;;22.30;17.42;;;;;;;;;;6289212;28;20045;-78
2021/10/03 12:33:13;;;;;;;26.70;18.23;;;;;;;;;;6283220;28;20415;-72
2021/10/03 12:36:17;;;;;;;26.40;17.90;;;;;;;;;;6285750;28;20130;-67
2021/10/03 12:39:21;;;;;;;27.20;18.80;;;;;;;;;;6290379;28;20065;-69
2021/10/03 12:42:24;;;;;;;24.98;18.05;;;;;;;;;;6288998;28;20051;-69
2021/10/03 12:45:26;;;;;;;26.15;18.15;;;;;;;;;;6293216;28;20182;-77
2021/10/03 12:48:28;;;;;;;28.90;18.23;;;;;;;;;;6282537;28;20145;-69
2021/10/03 12:51:29;;;;;;;21.95;17.75;;;;;;;;;;6283398;28;20121;-70
2021/10/03 12:54:33;;;;;;;26.55;18.42;;;;;;;;;;6290177;28;20067;-69
2021/10/03 12:57:34;;;;;;;29.60;19.25;;;;;;;;;;6294596;28;20589;-70
2021/10/03 13:00:36;;;;;;;24.45;17.75;;;;;;;;;;6280306;28;20118;-72
2021/10/03 13:03:38;;;;;;;28.27;18.10;;;;;;;;;;6279797;28;20127;-69
2021/10/03 13:06:40;;;;;;;24.80;16.50;;;;;;;;;;6282479;28;20048;-70
2021/10/03 13:09:44;;;;;;;25.92;17.20;;;;;;;;;;6289679;28;20036;-68
2021/10/03 13:12:46;;;;;;;24.65;17.02;;;;;;;;;;6287387;28;20051;-71
2021/10/03 13:15:48;;;;;;;22.30;16.70;;;;;;;;;;6282348;28;20116;-69
2021/10/03 13:18:49;;;;;;;22.58;15.38;;;;;;;;;;6281030;28;20049;-71
2021/10/03 13:21:51;;;;;;;20.60;14.77;;;;;;;;;;6283525;28;20135;-70
2021/10/03 13:24:54;;;;;;;19.83;14.88;;;;;;;;;;6294332;28;20094;-71
2021/10/03 13:27:55;;;;;;;22.48;14.55;;;;;;;;;;6286869;28;20427;-70
2021/10/03 13:30:58;;;;;;;22.58;16.00;;;;;;;;;;6284792;28;20078;-70
2021/10/03 13:33:59;;;;;;;20.25;15.13;;;;;;;;;;6281969;28;20055;-69
2021/10/03 13:37:02;;;;;;;19.77;14.32;;;;;;;;;;6279711;28;20040;-70
2021/10/03 13:40:07;;;;;;;21.25;14.68;;;;;;;;;;6286522;28;20044;-72
2021/10/03 13:43:09;;;;;;;17.77;13.60;;;;;;;;;;6285432;28;20056;-70
2021/10/03 13:46:12;;;;;;;20.00;14.68;;;;;;;;;;6283276;28;20051;-68
2021/10/03 13:49:13;;;;;;;21.27;14.35;;;;;;;;;;6264066;28;20048;-69
2021/10/03 13:52:15;;;;;;;20.73;15.38;;;;;;;;;;6260954;28;20521;-71
2021/10/03 13:55:18;;;;;;;18.73;14.23;;;;;;;;;;6260528;28;20050;-68
2021/10/03 13:58:20;;;;;;;19.33;14.30;;;;;;;;;;6261734;28;20136;-70
2021/10/03 14:01:22;;;;;;;17.23;13.70;;;;;;;;;;6256052;28;20048;-68
2021/10/03 14:04:23;;;;;;;16.95;13.27;;;;;;;;;;6259795;28;20061;-68
2021/10/03 14:07:25;;;;;;;16.35;12.15;;;;;;;;;;6252472;28;20114;-71
2021/10/03 14:10:28;;;;;;;16.92;12.25;;;;;;;;;;6252744;28;20504;-69
2021/10/03 14:13:30;;;;;;;18.25;12.18;;;;;;;;;;6273112;28;20151;-68
2021/10/03 14:16:32;;;;;;;16.98;12.52;;;;;;;;;;6266391;28;20093;-72
2021/10/03 14:19:33;;;;;;;18.08;12.27;;;;;;;;;;6260035;28;20558;-68
2021/10/03 14:22:35;;;;;;;18.50;12.63;;;;;;;;;;6256062;28;20103;-69
2021/10/03 14:25:41;;;;;;;17.02;12.52;;;;;;;;;;6262619;28;20305;-68
2021/10/03 14:28:42;;;;;;;15.50;12.30;;;;;;;;;;6268781;28;20416;-68
2021/10/03 14:31:44;;;;;;;16.35;12.32;;;;;;;;;;6261009;28;20049;-69
2021/10/03 14:34:46;;;;;;;16.52;13.10;;;;;;;;;;6264692;28;20079;-69
2021/10/03 14:37:47;;;;;;;15.50;12.50;;;;;;;;;;6262270;28;20044;-68
2021/10/03 14:40:51;;;;;;;12.98;10.73;;;;;;;;;;6262760;28;20199;-68
2021/10/03 14:43:53;;;;;;;13.95;11.30;;;;;;;;;;6273445;28;20090;-68
2021/10/03 14:46:55;;;;;;;14.63;11.77;;;;;;;;;;6261341;28;20076;-68
2021/10/03 14:49:59;;;;;;;13.55;11.15;;;;;;;;;;6289947;28;20048;-71
2021/10/03 14:53:02;;;;;;;14.23;10.80;;;;;;;;;;6284419;28;20054;-68
2021/10/03 14:56:05;;;;;;;14.00;10.30;;;;;;;;;;6286920;28;20048;-69
2021/10/03 14:59:07;;;;;;;11.75;9.98;;;;;;;;;;6290900;28;20045;-68
2021/10/03 15:02:08;;;;;;;12.07;9.60;;;;;;;;;;6283017;28;20080;-68
2021/10/03 15:05:10;;;;;;;16.25;9.43;;;;;;;;;;6287679;28;20126;-70
2021/10/03 15:08:13;;;;;;;12.73;9.50;;;;;;;;;;6283880;28;20049;-71
2021/10/03 15:11:16;;;;;;;11.93;8.52;;;;;;;;;;6283686;28;20523;-69
2021/10/03 15:14:19;;;;;;;9.63;7.45;;;;;;;;;;6291111;28;20388;-68
2021/10/03 15:17:20;;;;;;;9.45;7.82;;;;;;;;;;6280628;28;20147;-69
2021/10/03 15:20:22;;;;;;;8.80;6.72;;;;;;;;;;6284017;28;20146;-72
2021/10/03 15:23:24;;;;;;;12.25;7.95;;;;;;;;;;6287803;28;20051;-70
2021/10/03 15:26:27;;;;;;;9.38;8.00;;;;;;;;;;6285019;28;20426;-70
2021/10/03 15:29:29;;;;;;;11.35;7.43;;;;;;;;;;6287198;28;20056;-69
2021/10/03 15:32:30;;;;;;;9.40;6.97;;;;;;;;;;6280027;28;20408;-70
2021/10/03 15:35:32;;;;;;;10.15;7.57;;;;;;;;;;6284231;28;20049;-72
2021/10/03 15:38:34;;;;;;;9.95;7.05;;;;;;;;;;6289165;28;20149;-71
2021/10/03 15:41:37;;;;;;;11.95;6.97;;;;;;;;;;6281673;28;20135;-70
2021/10/03 15:44:38;;;;;;;9.63;6.93;;;;;;;;;;6292438;28;20131;-70
2021/10/03 15:47:40;;;;;;;8.07;6.38;;;;;;;;;;6276420;28;20072;-69
2021/10/03 15:50:42;;;;;;;7.90;6.53;;;;;;;;;;6281809;28;20143;-70
2021/10/03 15:53:43;;;;;;;10.00;6.60;;;;;;;;;;6285614;28;20172;-69
2021/10/03 15:56:47;;;;;;;8.25;6.07;;;;;;;;;;6280632;28;20109;-69
2021/10/03 15:59:49;;;;;;;8.88;5.78;;;;;;;;;;6288870;28;20123;-72
2021/10/03 16:02:50;;;;;;;8.82;6.20;;;;;;;;;;6278350;28;20130;-70
2021/10/03 16:05:52;;;;;;;7.70;5.70;;;;;;;;;;6283595;28;20090;-69
2021/10/03 16:08:54;;;;;;;9.05;6.05;;;;;;;;;;6289091;28;20540;-71
2021/10/03 16:11:57;;;;;;;7.07;5.80;;;;;;;;;;6285223;28;20099;-69
2021/10/03 16:15:01;;;;;;;9.88;6.10;;;;;;;;;;6289215;28;20163;-68
2021/10/03 16:18:03;;;;;;;7.45;6.00;;;;;;;;;;6272910;28;20055;-69
2021/10/03 16:21:05;;;;;;;7.70;5.93;;;;;;;;;;6277037;28;20076;-69
2021/10/03 16:24:08;;;;;;;7.75;5.72;;;;;;;;;;6282426;28;20135;-74
2021/10/03 16:27:11;;;;;;;8.80;6.07;;;;;;;;;;6284636;28;20121;-69
2021/10/03 16:30:13;;;;;;;8.50;5.55;;;;;;;;;;6288065;28;20045;-75
2021/10/03 16:33:15;;;;;;;6.40;5.13;;;;;;;;;;6278927;28;20044;-68
2021/10/03 16:36:17;;;;;;;6.15;5.05;;;;;;;;;;6275637;28;20502;-72
2021/10/03 16:39:18;;;;;;;6.03;4.78;;;;;;;;;;6285303;28;20061;-74
2021/10/03 16:42:21;;;;;;;6.40;5.15;;;;;;;;;;6286088;28;20396;-71
2021/10/03 16:45:23;;;;;;;5.00;4.30;;;;;;;;;;6281984;28;20491;-72
2021/10/03 16:48:25;;;;;;;5.00;4.45;;;;;;;;;;6279977;28;20206;-69
2021/10/03 16:51:27;;;;;;;5.57;4.05;;;;;;;;;;6277404;28;20405;-70
2021/10/03 16:54:29;;;;;;;5.50;3.83;;;;;;;;;;6287871;28;20355;-69
2021/10/03 16:57:33;;;;;;;5.30;4.35;;;;;;;;;;6278346;28;20400;-70
2021/10/03 17:00:35;;;;;;;5.47;4.40;;;;;;;;;;6281035;28;20150;-73
2021/10/03 17:03:37;;;;;;;7.13;4.45;;;;;;;;;;6281675;28;20056;-69
2021/10/03 17:06:39;;;;;;;5.50;4.20;;;;;;;;;;6280528;28;20051;-69
2021/10/03 17:09:40;;;;;;;4.90;4.25;;;;;;;;;;6288976;28;20063;-68
2021/10/03 17:12:43;;;;;;;5.80;4.03;;;;;;;;;;6285994;28;20040;-71
2021/10/03 17:15:45;;;;;;;5.60;4.60;;;;;;;;;;6288418;28;20047;-75
2021/10/03 17:18:46;;;;;;;5.82;3.45;;;;;;;;;;6292299;28;20075;-69
2021/10/03 17:21:48;;;;;;;5.53;4.05;;;;;;;;;;6289383;28;20558;-73
2021/10/03 17:24:50;;;;;;;4.38;3.30;;;;;;;;;;6294003;28;20141;-69
2021/10/03 17:27:54;;;;;;;3.85;3.17;;;;;;;;;;6288742;28;20042;-70
2021/10/03 17:30:56;;;;;;;4.47;3.15;;;;;;;;;;6292151;28;20045;-71
2021/10/03 17:33:57;;;;;;;3.75;3.35;;;;;;;;;;6289403;28;20067;-71
2021/10/03 17:37:04;;;;;;;4.53;3.40;;;;;;;;;;6283638;28;20152;-69
2021/10/03 17:40:09;;;;;;;6.38;3.88;;;;;;;;;;6286920;28;20374;-71
2021/10/03 17:43:12;;;;;;;4.97;3.47;;;;;;;;;;6280802;28;20040;-72
2021/10/03 17:46:13;;;;;;;6.15;4.05;;;;;;;;;;6279686;28;20055;-69
2021/10/03 17:49:15;;;;;;;3.88;3.38;;;;;;;;;;6264826;28;20167;-70